< < Back
Terminal Aerodrome Forecast


Current Version              Previous Versions:   1  2  3  4  5  6  7  8  9  

Terminal Aerodrome Forecast

358
FTUS42 KGSP 042003 AAA
TAFCLT
TAF AMD
KCLT 042003Z 0420/0518 22014G28KT P6SM BKN015 BKN040
     FM042200 21012G22KT P6SM SCT020 BKN040
     FM050800 24007KT P6SM OVC020
     FM051100 23004KT 3SM -RA OVC008
     FM051500 32007KT 1 1/2SM -RA BR OVC012
     FM051700 36010KT 5SM -RA BR OVC015=

Latest METAR

867
SAUS70 KWBC 050400 RRB
MTRCLT
METAR KCLT 050352Z 20010KT 10SM BKN085 BKN250 18/13 A2990 RMK AO2 SLP121
T01830133 $


USA.gov is the U.S. government's official web portal to all federal, state and local government web resources and services.